sensor_id;sensor_type;location;lat;lon;timestamp;pressure;altitude;pressure_sealevel;temperature;humidity
66801;BME280;53703;50.326;19.122;2023-02-22T00:01:45;98636.09;;;18.84;43.22
66801;BME280;53703;50.326;19.122;2023-02-22T00:04:43;98638.49;;;18.85;43.12
66801;BME280;53703;50.326;19.122;2023-02-22T00:07:37;98637.69;;;18.81;43.30
66801;BME280;53703;50.326;19.122;2023-02-22T00:10:31;98638.39;;;18.81;43.37
66801;BME280;53703;50.326;19.122;2023-02-22T00:13:25;98640.61;;;18.82;43.30
66801;BME280;53703;50.326;19.122;2023-02-22T00:16:22;98644.08;;;18.81;43.22
66801;BME280;53703;50.326;19.122;2023-02-22T00:19:17;98641.35;;;18.79;43.19
66801;BME280;53703;50.326;19.122;2023-02-22T00:22:11;98643.83;;;18.84;43.12
66801;BME280;53703;50.326;19.122;2023-02-22T00:25:05;98642.03;;;18.81;42.96
66801;BME280;53703;50.326;19.122;2023-02-22T00:28:00;98642.62;;;18.79;43.08
66801;BME280;53703;50.326;19.122;2023-02-22T00:30:57;98641.27;;;18.79;43.01
66801;BME280;53703;50.326;19.122;2023-02-22T00:33:51;98645.55;;;18.77;43.02
66801;BME280;53703;50.326;19.122;2023-02-22T00:36:48;98644.77;;;18.77;42.92
66801;BME280;53703;50.326;19.122;2023-02-22T00:39:41;98646.34;;;18.77;42.89
66801;BME280;53703;50.326;19.122;2023-02-22T00:42:35;98649.15;;;18.76;42.83
66801;BME280;53703;50.326;19.122;2023-02-22T00:45:31;98653.34;;;18.76;42.93
66801;BME280;53703;50.326;19.122;2023-02-22T00:48:25;98649.80;;;18.79;42.77
66801;BME280;53703;50.326;19.122;2023-02-22T00:51:19;98648.84;;;18.76;42.71
66801;BME280;53703;50.326;19.122;2023-02-22T00:54:13;98646.71;;;18.76;42.81
66801;BME280;53703;50.326;19.122;2023-02-22T00:57:11;98647.79;;;18.75;42.93
66801;BME280;53703;50.326;19.122;2023-02-22T01:00:07;98647.31;;;18.75;42.76
66801;BME280;53703;50.326;19.122;2023-02-22T01:03:04;98649.86;;;18.75;42.77
66801;BME280;53703;50.326;19.122;2023-02-22T01:06:01;98646.52;;;18.72;42.78
66801;BME280;53703;50.326;19.122;2023-02-22T01:08:55;98650.30;;;18.72;42.80
66801;BME280;53703;50.326;19.122;2023-02-22T01:11:49;98650.66;;;18.72;42.67
66801;BME280;53703;50.326;19.122;2023-02-22T01:14:46;98653.25;;;18.72;42.64
66801;BME280;53703;50.326;19.122;2023-02-22T01:17:41;98650.88;;;18.72;42.65
66801;BME280;53703;50.326;19.122;2023-02-22T01:20:35;98650.59;;;18.73;42.57
66801;BME280;53703;50.326;19.122;2023-02-22T01:23:29;98650.92;;;18.71;42.69
66801;BME280;53703;50.326;19.122;2023-02-22T01:26:23;98650.14;;;18.71;42.54
66801;BME280;53703;50.326;19.122;2023-02-22T01:29:18;98649.92;;;18.72;42.56
66801;BME280;53703;50.326;19.122;2023-02-22T01:32:13;98648.02;;;18.71;42.43
66801;BME280;53703;50.326;19.122;2023-02-22T01:35:11;98648.08;;;18.71;42.55
66801;BME280;53703;50.326;19.122;2023-02-22T01:38:06;98643.48;;;18.68;42.45
66801;BME280;53703;50.326;19.122;2023-02-22T01:41:00;98645.59;;;18.69;42.37
66801;BME280;53703;50.326;19.122;2023-02-22T01:43:54;98645.39;;;18.71;42.41
66801;BME280;53703;50.326;19.122;2023-02-22T01:46:48;98645.75;;;18.70;42.36
66801;BME280;53703;50.326;19.122;2023-02-22T01:49:46;98651.50;;;18.69;42.41
66801;BME280;53703;50.326;19.122;2023-02-22T01:52:40;98651.47;;;18.67;42.35
66801;BME280;53703;50.326;19.122;2023-02-22T01:55:35;98648.83;;;18.67;42.38
66801;BME280;53703;50.326;19.122;2023-02-22T01:58:31;98649.92;;;18.66;42.31
66801;BME280;53703;50.326;19.122;2023-02-22T02:01:28;98648.52;;;18.64;42.43
66801;BME280;53703;50.326;19.122;2023-02-22T02:04:23;98643.27;;;18.65;42.22
66801;BME280;53703;50.326;19.122;2023-02-22T02:07:20;98647.75;;;18.65;42.24
66801;BME280;53703;50.326;19.122;2023-02-22T02:10:16;98643.23;;;18.63;42.32
66801;BME280;53703;50.326;19.122;2023-02-22T02:13:06;98644.70;;;18.63;42.27
66801;BME280;53703;50.326;19.122;2023-02-22T02:16:02;98651.79;;;18.62;42.27
66801;BME280;53703;50.326;19.122;2023-02-22T02:18:56;98645.92;;;18.61;42.24
66801;BME280;53703;50.326;19.122;2023-02-22T02:29:53;98647.27;;;18.61;42.07
66801;BME280;53703;50.326;19.122;2023-02-22T02:33:06;98647.60;;;18.62;42.13
66801;BME280;53703;50.326;19.122;2023-02-22T02:36:09;98651.56;;;18.62;42.20
66801;BME280;53703;50.326;19.122;2023-02-22T02:39:23;98649.18;;;18.62;42.04
66801;BME280;53703;50.326;19.122;2023-02-22T02:42:22;98652.45;;;18.63;41.94
66801;BME280;53703;50.326;19.122;2023-02-22T02:45:25;98650.83;;;18.64;42.11
66801;BME280;53703;50.326;19.122;2023-02-22T02:48:26;98654.52;;;18.64;42.04
66801;BME280;53703;50.326;19.122;2023-02-22T02:51:21;98657.02;;;18.63;41.88
66801;BME280;53703;50.326;19.122;2023-02-22T02:54:17;98656.29;;;18.62;41.94
66801;BME280;53703;50.326;19.122;2023-02-22T02:57:12;98657.36;;;18.60;41.92
66801;BME280;53703;50.326;19.122;2023-02-22T03:00:09;98653.98;;;18.62;41.82
66801;BME280;53703;50.326;19.122;2023-02-22T03:07:13;98656.50;;;18.62;41.88
66801;BME280;53703;50.326;19.122;2023-02-22T03:10:26;98662.38;;;18.62;41.75
66801;BME280;53703;50.326;19.122;2023-02-22T03:13:31;98664.04;;;18.59;41.77
66801;BME280;53703;50.326;19.122;2023-02-22T03:16:36;98660.52;;;18.57;41.89
66801;BME280;53703;50.326;19.122;2023-02-22T03:19:38;98663.98;;;18.57;41.81
66801;BME280;53703;50.326;19.122;2023-02-22T03:22:39;98662.64;;;18.57;41.86
66801;BME280;53703;50.326;19.122;2023-02-22T03:25:39;98661.90;;;18.56;41.82
66801;BME280;53703;50.326;19.122;2023-02-22T03:28:36;98661.34;;;18.56;41.71
66801;BME280;53703;50.326;19.122;2023-02-22T03:31:35;98663.27;;;18.56;41.72
66801;BME280;53703;50.326;19.122;2023-02-22T03:34:28;98662.12;;;18.55;41.75
66801;BME280;53703;50.326;19.122;2023-02-22T03:37:28;98665.84;;;18.53;41.74
66801;BME280;53703;50.326;19.122;2023-02-22T03:40:32;98668.94;;;18.53;41.70
66801;BME280;53703;50.326;19.122;2023-02-22T03:43:33;98671.77;;;18.59;41.71
66801;BME280;53703;50.326;19.122;2023-02-22T03:46:30;98678.27;;;18.60;41.02
66801;BME280;53703;50.326;19.122;2023-02-22T03:49:32;98676.44;;;18.62;41.06
66801;BME280;53703;50.326;19.122;2023-02-22T03:52:28;98679.86;;;18.54;41.63
66801;BME280;53703;50.326;19.122;2023-02-22T03:55:22;98679.48;;;18.55;41.57
66801;BME280;53703;50.326;19.122;2023-02-22T03:58:16;98679.70;;;18.54;41.68
66801;BME280;53703;50.326;19.122;2023-02-22T04:01:11;98677.02;;;18.54;41.72
66801;BME280;53703;50.326;19.122;2023-02-22T04:04:08;98679.57;;;18.52;41.55
66801;BME280;53703;50.326;19.122;2023-02-22T04:07:02;98679.23;;;18.55;41.51
66801;BME280;53703;50.326;19.122;2023-02-22T04:09:56;98672.85;;;18.55;41.58
66801;BME280;53703;50.326;19.122;2023-02-22T04:12:50;98675.48;;;18.53;41.49
66801;BME280;53703;50.326;19.122;2023-02-22T04:15:44;98677.27;;;18.52;41.57
66801;BME280;53703;50.326;19.122;2023-02-22T04:18:38;98679.29;;;18.51;41.53
66801;BME280;53703;50.326;19.122;2023-02-22T04:21:33;98676.80;;;18.52;41.59
66801;BME280;53703;50.326;19.122;2023-02-22T04:24:26;98676.04;;;18.53;41.62
66801;BME280;53703;50.326;19.122;2023-02-22T04:27:25;98672.91;;;18.52;41.61
66801;BME280;53703;50.326;19.122;2023-02-22T04:30:20;98671.93;;;18.50;41.53
66801;BME280;53703;50.326;19.122;2023-02-22T04:33:15;98677.59;;;18.52;41.48
66801;BME280;53703;50.326;19.122;2023-02-22T04:36:10;98671.55;;;18.51;41.58
66801;BME280;53703;50.326;19.122;2023-02-22T04:39:05;98672.10;;;18.51;41.47
66801;BME280;53703;50.326;19.122;2023-02-22T04:41:58;98671.59;;;18.49;41.51
66801;BME280;53703;50.326;19.122;2023-02-22T04:44:52;98670.67;;;18.48;41.50
66801;BME280;53703;50.326;19.122;2023-02-22T04:47:46;98666.57;;;18.47;41.61
66801;BME280;53703;50.326;19.122;2023-02-22T04:50:40;98670.49;;;18.47;41.55
66801;BME280;53703;50.326;19.122;2023-02-22T04:53:34;98671.00;;;18.48;41.50
66801;BME280;53703;50.326;19.122;2023-02-22T04:56:28;98671.37;;;18.30;40.97
66801;BME280;53703;50.326;19.122;2023-02-22T04:59:22;98674.62;;;18.45;41.43
66801;BME280;53703;50.326;19.122;2023-02-22T05:02:16;98672.64;;;18.45;41.53
66801;BME280;53703;50.326;19.122;2023-02-22T05:05:11;98671.52;;;18.47;41.48
66801;BME280;53703;50.326;19.122;2023-02-22T05:08:06;98671.81;;;18.46;41.72
66801;BME280;53703;50.326;19.122;2023-02-22T05:10:59;98674.17;;;18.37;41.15
66801;BME280;53703;50.326;19.122;2023-02-22T05:13:53;98678.30;;;18.43;41.39
66801;BME280;53703;50.326;19.122;2023-02-22T05:16:48;98677.02;;;18.38;40.88
66801;BME280;53703;50.326;19.122;2023-02-22T05:19:42;98678.86;;;18.38;41.04
66801;BME280;53703;50.326;19.122;2023-02-22T05:22:36;98681.77;;;18.44;41.26
66801;BME280;53703;50.326;19.122;2023-02-22T05:25:30;98684.70;;;18.50;41.38
66801;BME280;53703;50.326;19.122;2023-02-22T05:28:24;98688.00;;;18.55;41.20
66801;BME280;53703;50.326;19.122;2023-02-22T05:31:18;98691.02;;;18.59;41.06
66801;BME280;53703;50.326;19.122;2023-02-22T05:34:12;98687.03;;;18.63;41.56
66801;BME280;53703;50.326;19.122;2023-02-22T05:36:50;98692.65;;;18.59;41.67
66801;BME280;53703;50.326;19.122;2023-02-22T05:39:44;98693.84;;;18.54;42.24
66801;BME280;53703;50.326;19.122;2023-02-22T05:42:38;98693.70;;;18.55;42.26
66801;BME280;53703;50.326;19.122;2023-02-22T05:45:32;98701.20;;;18.56;41.78
66801;BME280;53703;50.326;19.122;2023-02-22T05:48:26;98703.20;;;18.53;42.12
66801;BME280;53703;50.326;19.122;2023-02-22T05:51:19;98703.30;;;18.54;42.04
66801;BME280;53703;50.326;19.122;2023-02-22T05:54:13;98707.00;;;18.53;42.17
66801;BME280;53703;50.326;19.122;2023-02-22T05:57:07;98708.93;;;18.52;42.24
66801;BME280;53703;50.326;19.122;2023-02-22T06:00:02;98709.49;;;18.50;42.28
66801;BME280;53703;50.326;19.122;2023-02-22T06:02:58;98713.44;;;18.49;42.21
66801;BME280;53703;50.326;19.122;2023-02-22T06:05:38;98716.91;;;18.47;42.36
66801;BME280;53703;50.326;19.122;2023-02-22T06:08:33;98715.26;;;18.47;42.21
66801;BME280;53703;50.326;19.122;2023-02-22T06:11:27;98718.30;;;18.48;41.91
66801;BME280;53703;50.326;19.122;2023-02-22T06:14:21;98724.38;;;18.48;42.21
66801;BME280;53703;50.326;19.122;2023-02-22T06:17:16;98726.04;;;18.48;42.08
66801;BME280;53703;50.326;19.122;2023-02-22T06:20:14;98729.77;;;18.46;42.17
66801;BME280;53703;50.326;19.122;2023-02-22T06:23:09;98728.91;;;18.47;42.07
66801;BME280;53703;50.326;19.122;2023-02-22T06:26:03;98731.14;;;18.44;42.14
66801;BME280;53703;50.326;19.122;2023-02-22T06:28:56;98736.43;;;18.47;42.07
66801;BME280;53703;50.326;19.122;2023-02-22T06:31:51;98744.56;;;18.48;41.97
66801;BME280;53703;50.326;19.122;2023-02-22T06:34:45;98740.38;;;18.47;41.81
66801;BME280;53703;50.326;19.122;2023-02-22T06:37:41;98749.95;;;18.05;40.53
66801;BME280;53703;50.326;19.122;2023-02-22T06:40:35;98750.69;;;18.19;42.31
66801;BME280;53703;50.326;19.122;2023-02-22T06:43:29;98753.12;;;18.27;42.34
66801;BME280;53703;50.326;19.122;2023-02-22T06:46:23;98756.06;;;18.32;42.01
66801;BME280;53703;50.326;19.122;2023-02-22T06:49:17;98762.67;;;18.29;42.01
66801;BME280;53703;50.326;19.122;2023-02-22T06:52:11;98758.98;;;18.57;41.37
66801;BME280;53703;50.326;19.122;2023-02-22T06:55:06;98757.38;;;17.66;42.18
66801;BME280;53703;50.326;19.122;2023-02-22T06:58:01;98759.23;;;18.39;43.22
66801;BME280;53703;50.326;19.122;2023-02-22T07:00:55;98764.58;;;18.43;44.46
66801;BME280;53703;50.326;19.122;2023-02-22T07:03:50;98767.78;;;18.37;43.44
66801;BME280;53703;50.326;19.122;2023-02-22T07:06:48;98771.24;;;18.28;43.46
66801;BME280;53703;50.326;19.122;2023-02-22T07:09:42;98772.00;;;18.27;43.89
66801;BME280;53703;50.326;19.122;2023-02-22T07:12:38;98772.05;;;16.42;46.09
66801;BME280;53703;50.326;19.122;2023-02-22T07:15:34;98773.08;;;15.98;47.01
66801;BME280;53703;50.326;19.122;2023-02-22T07:18:28;98770.66;;;17.72;45.03
66801;BME280;53703;50.326;19.122;2023-02-22T07:21:22;98772.69;;;17.98;44.31
66801;BME280;53703;50.326;19.122;2023-02-22T07:24:16;98777.78;;;18.14;43.75
66801;BME280;53703;50.326;19.122;2023-02-22T07:27:10;98777.91;;;18.19;44.55
66801;BME280;53703;50.326;19.122;2023-02-22T07:30:05;98773.66;;;18.16;44.26
66801;BME280;53703;50.326;19.122;2023-02-22T07:33:01;98772.84;;;18.31;44.05
66801;BME280;53703;50.326;19.122;2023-02-22T07:35:55;98775.65;;;18.25;43.76
66801;BME280;53703;50.326;19.122;2023-02-22T07:38:50;98773.98;;;18.20;43.77
66801;BME280;53703;50.326;19.122;2023-02-22T07:41:43;98774.45;;;18.33;43.37
66801;BME280;53703;50.326;19.122;2023-02-22T07:44:37;98775.58;;;18.37;43.56
66801;BME280;53703;50.326;19.122;2023-02-22T07:47:31;98776.23;;;18.50;43.67
66801;BME280;53703;50.326;19.122;2023-02-22T07:50:26;98784.42;;;18.44;44.19
66801;BME280;53703;50.326;19.122;2023-02-22T07:53:24;98782.21;;;18.47;44.68
66801;BME280;53703;50.326;19.122;2023-02-22T07:56:20;98778.52;;;18.39;44.27
66801;BME280;53703;50.326;19.122;2023-02-22T07:59:14;98780.67;;;18.48;44.84
66801;BME280;53703;50.326;19.122;2023-02-22T08:02:15;98779.79;;;18.37;44.41
66801;BME280;53703;50.326;19.122;2023-02-22T08:05:12;98778.15;;;18.35;44.94
66801;BME280;53703;50.326;19.122;2023-02-22T08:08:07;98778.04;;;18.53;44.94
66801;BME280;53703;50.326;19.122;2023-02-22T08:11:05;98777.83;;;18.45;44.79
66801;BME280;53703;50.326;19.122;2023-02-22T08:13:58;98778.31;;;18.38;45.34
66801;BME280;53703;50.326;19.122;2023-02-22T08:16:42;98779.33;;;18.35;46.26
66801;BME280;53703;50.326;19.122;2023-02-22T08:19:22;98781.16;;;18.32;46.20
66801;BME280;53703;50.326;19.122;2023-02-22T08:22:15;98781.67;;;18.34;45.68
66801;BME280;53703;50.326;19.122;2023-02-22T08:25:11;98782.41;;;18.32;45.99
66801;BME280;53703;50.326;19.122;2023-02-22T08:28:09;98784.56;;;18.30;46.22
66801;BME280;53703;50.326;19.122;2023-02-22T08:31:04;98778.55;;;18.24;46.07
66801;BME280;53703;50.326;19.122;2023-02-22T08:33:59;98777.91;;;18.24;45.62
66801;BME280;53703;50.326;19.122;2023-02-22T08:36:44;98780.44;;;18.24;45.41
66801;BME280;53703;50.326;19.122;2023-02-22T08:39:39;98784.08;;;18.22;45.40
66801;BME280;53703;50.326;19.122;2023-02-22T08:42:32;98784.38;;;18.21;45.06
66801;BME280;53703;50.326;19.122;2023-02-22T08:45:26;98785.30;;;18.23;45.28
66801;BME280;53703;50.326;19.122;2023-02-22T08:48:22;98791.19;;;18.40;44.76
66801;BME280;53703;50.326;19.122;2023-02-22T08:51:16;98793.15;;;18.21;45.03
66801;BME280;53703;50.326;19.122;2023-02-22T08:54:10;98795.52;;;18.16;45.18
66801;BME280;53703;50.326;19.122;2023-02-22T08:57:06;98798.45;;;18.17;45.09
66801;BME280;53703;50.326;19.122;2023-02-22T09:00:00;98796.51;;;18.18;45.09
66801;BME280;53703;50.326;19.122;2023-02-22T09:02:54;98797.41;;;18.19;44.94
66801;BME280;53703;50.326;19.122;2023-02-22T09:05:48;98797.64;;;18.16;45.04
66801;BME280;53703;50.326;19.122;2023-02-22T09:08:43;98793.40;;;18.17;44.99
66801;BME280;53703;50.326;19.122;2023-02-22T09:11:36;98797.29;;;18.18;44.89
66801;BME280;53703;50.326;19.122;2023-02-22T09:14:30;98797.67;;;18.15;45.02
66801;BME280;53703;50.326;19.122;2023-02-22T09:17:24;98800.66;;;18.17;44.90
66801;BME280;53703;50.326;19.122;2023-02-22T09:20:21;98804.48;;;18.15;44.87
66801;BME280;53703;50.326;19.122;2023-02-22T09:23:15;98805.13;;;18.13;45.12
66801;BME280;53703;50.326;19.122;2023-02-22T09:26:11;98808.97;;;18.15;44.93
66801;BME280;53703;50.326;19.122;2023-02-22T09:28:58;98806.58;;;18.14;44.98
66801;BME280;53703;50.326;19.122;2023-02-22T09:31:53;98802.23;;;18.14;44.93
66801;BME280;53703;50.326;19.122;2023-02-22T09:34:48;98801.85;;;18.15;44.83
66801;BME280;53703;50.326;19.122;2023-02-22T09:37:43;98803.02;;;18.17;44.90
66801;BME280;53703;50.326;19.122;2023-02-22T09:40:41;98807.66;;;18.11;45.59
66801;BME280;53703;50.326;19.122;2023-02-22T09:43:43;98801.13;;;18.11;45.57
66801;BME280;53703;50.326;19.122;2023-02-22T09:46:42;98800.41;;;18.07;44.97
66801;BME280;53703;50.326;19.122;2023-02-22T09:49:27;98798.09;;;18.15;45.27
66801;BME280;53703;50.326;19.122;2023-02-22T09:52:26;98791.36;;;18.17;45.13
66801;BME280;53703;50.326;19.122;2023-02-22T09:55:46;98787.45;;;18.11;45.25
66801;BME280;53703;50.326;19.122;2023-02-22T09:58:47;98792.14;;;18.07;45.12
66801;BME280;53703;50.326;19.122;2023-02-22T10:01:46;98795.05;;;18.30;44.84
66801;BME280;53703;50.326;19.122;2023-02-22T10:04:38;98792.61;;;18.25;44.86
66801;BME280;53703;50.326;19.122;2023-02-22T10:07:38;98790.96;;;18.30;44.76
66801;BME280;53703;50.326;19.122;2023-02-22T10:10:37;98785.80;;;18.27;44.65
66801;BME280;53703;50.326;19.122;2023-02-22T10:13:31;98784.48;;;18.30;44.58
66801;BME280;53703;50.326;19.122;2023-02-22T10:16:35;98786.91;;;18.19;44.62
66801;BME280;53703;50.326;19.122;2023-02-22T10:19:42;98787.36;;;18.26;44.64
66801;BME280;53703;50.326;19.122;2023-02-22T10:22:50;98782.69;;;18.12;44.89
66801;BME280;53703;50.326;19.122;2023-02-22T10:26:12;98787.52;;;18.03;45.33
66801;BME280;53703;50.326;19.122;2023-02-22T10:29:15;98785.97;;;18.02;45.32
66801;BME280;53703;50.326;19.122;2023-02-22T10:32:19;98787.75;;;18.03;44.97
66801;BME280;53703;50.326;19.122;2023-02-22T10:35:22;98787.66;;;18.00;44.68
66801;BME280;53703;50.326;19.122;2023-02-22T10:38:20;98784.05;;;18.01;44.57
66801;BME280;53703;50.326;19.122;2023-02-22T10:41:25;98780.61;;;18.06;45.25
66801;BME280;53703;50.326;19.122;2023-02-22T10:44:20;98782.80;;;18.24;44.40
66801;BME280;53703;50.326;19.122;2023-02-22T10:47:16;98778.55;;;18.22;44.54
66801;BME280;53703;50.326;19.122;2023-02-22T10:50:16;98773.48;;;18.08;44.44
66801;BME280;53703;50.326;19.122;2023-02-22T10:53:13;98775.66;;;18.03;44.54
66801;BME280;53703;50.326;19.122;2023-02-22T10:56:12;98775.73;;;18.03;44.51
66801;BME280;53703;50.326;19.122;2023-02-22T10:59:07;98776.66;;;18.02;44.71
66801;BME280;53703;50.326;19.122;2023-02-22T11:02:23;98773.02;;;18.01;44.63
66801;BME280;53703;50.326;19.122;2023-02-22T11:05:30;98778.94;;;18.04;45.24
66801;BME280;53703;50.326;19.122;2023-02-22T11:08:31;98776.55;;;18.06;45.53
66801;BME280;53703;50.326;19.122;2023-02-22T11:11:26;98772.95;;;18.04;45.33
66801;BME280;53703;50.326;19.122;2023-02-22T11:14:29;98772.55;;;18.16;45.09
66801;BME280;53703;50.326;19.122;2023-02-22T11:17:31;98765.26;;;18.05;45.07
66801;BME280;53703;50.326;19.122;2023-02-22T11:20:29;98766.15;;;18.04;44.96
66801;BME280;53703;50.326;19.122;2023-02-22T11:23:27;98762.14;;;17.97;45.01
66801;BME280;53703;50.326;19.122;2023-02-22T11:26:21;98764.39;;;17.92;45.83
66801;BME280;53703;50.326;19.122;2023-02-22T11:29:24;98765.86;;;18.09;45.18
66801;BME280;53703;50.326;19.122;2023-02-22T11:32:21;98766.25;;;18.06;44.86
66801;BME280;53703;50.326;19.122;2023-02-22T11:35:36;98758.19;;;17.96;44.90
66801;BME280;53703;50.326;19.122;2023-02-22T11:38:33;98756.64;;;17.93;45.04
66801;BME280;53703;50.326;19.122;2023-02-22T11:41:31;98764.06;;;18.03;44.85
66801;BME280;53703;50.326;19.122;2023-02-22T11:44:29;98766.59;;;18.13;45.22
66801;BME280;53703;50.326;19.122;2023-02-22T11:47:24;98763.84;;;18.03;45.47
66801;BME280;53703;50.326;19.122;2023-02-22T11:50:29;98762.63;;;18.05;44.84
66801;BME280;53703;50.326;19.122;2023-02-22T11:53:30;98760.73;;;18.04;44.58
66801;BME280;53703;50.326;19.122;2023-02-22T11:56:35;98761.16;;;18.00;44.63
66801;BME280;53703;50.326;19.122;2023-02-22T11:59:37;98760.87;;;18.02;44.87
66801;BME280;53703;50.326;19.122;2023-02-22T12:03:01;98757.99;;;17.98;45.12
66801;BME280;53703;50.326;19.122;2023-02-22T12:06:14;98757.80;;;18.07;45.16
66801;BME280;53703;50.326;19.122;2023-02-22T12:09:16;98761.79;;;18.13;44.97
66801;BME280;53703;50.326;19.122;2023-02-22T12:12:23;98760.03;;;18.07;45.09
66801;BME280;53703;50.326;19.122;2023-02-22T12:15:29;98757.60;;;17.90;44.98
66801;BME280;53703;50.326;19.122;2023-02-22T12:18:31;98757.12;;;17.85;45.15
66801;BME280;53703;50.326;19.122;2023-02-22T12:21:17;98755.04;;;17.92;44.98
66801;BME280;53703;50.326;19.122;2023-02-22T12:23:59;98757.67;;;17.98;45.35
66801;BME280;53703;50.326;19.122;2023-02-22T12:27:02;98756.23;;;18.04;45.02
66801;BME280;53703;50.326;19.122;2023-02-22T12:30:06;98752.46;;;17.97;45.10
66801;BME280;53703;50.326;19.122;2023-02-22T12:33:14;98755.58;;;17.71;45.33
66801;BME280;53703;50.326;19.122;2023-02-22T12:36:15;98755.80;;;17.66;45.54
66801;BME280;53703;50.326;19.122;2023-02-22T12:39:34;98752.26;;;17.66;45.30
66801;BME280;53703;50.326;19.122;2023-02-22T12:42:52;98754.60;;;17.63;45.33
66801;BME280;53703;50.326;19.122;2023-02-22T12:45:53;98750.02;;;17.63;45.07
66801;BME280;53703;50.326;19.122;2023-02-22T12:48:59;98746.95;;;17.63;45.03
66801;BME280;53703;50.326;19.122;2023-02-22T12:51:59;98742.23;;;17.60;45.07
66801;BME280;53703;50.326;19.122;2023-02-22T12:55:17;98745.39;;;17.58;45.12
66801;BME280;53703;50.326;19.122;2023-02-22T12:58:22;98740.80;;;17.58;45.23
66801;BME280;53703;50.326;19.122;2023-02-22T13:01:21;98738.52;;;17.56;44.92
66801;BME280;53703;50.326;19.122;2023-02-22T13:04:18;98740.00;;;17.55;44.89
66801;BME280;53703;50.326;19.122;2023-02-22T13:07:27;98736.48;;;17.58;44.89
66801;BME280;53703;50.326;19.122;2023-02-22T13:10:48;98738.31;;;17.54;44.89
66801;BME280;53703;50.326;19.122;2023-02-22T13:14:12;98736.95;;;17.56;44.66
66801;BME280;53703;50.326;19.122;2023-02-22T13:17:17;98740.27;;;17.53;44.74
66801;BME280;53703;50.326;19.122;2023-02-22T13:20:18;98736.29;;;17.52;44.78
66801;BME280;53703;50.326;19.122;2023-02-22T13:23:28;98732.80;;;17.51;44.62
66801;BME280;53703;50.326;19.122;2023-02-22T13:26:29;98734.81;;;17.50;44.58
66801;BME280;53703;50.326;19.122;2023-02-22T13:29:28;98735.55;;;17.51;44.42
66801;BME280;53703;50.326;19.122;2023-02-22T13:32:39;98734.09;;;17.47;44.62
66801;BME280;53703;50.326;19.122;2023-02-22T13:35:51;98735.77;;;17.45;44.67
66801;BME280;53703;50.326;19.122;2023-02-22T13:39:13;98741.13;;;17.45;44.64
66801;BME280;53703;50.326;19.122;2023-02-22T13:49:48;98729.11;;;17.40;44.61
66801;BME280;53703;50.326;19.122;2023-02-22T13:52:46;98735.30;;;17.40;44.64
66801;BME280;53703;50.326;19.122;2023-02-22T13:55:45;98735.34;;;17.40;44.63
66801;BME280;53703;50.326;19.122;2023-02-22T13:59:01;98735.67;;;17.38;44.72
66801;BME280;53703;50.326;19.122;2023-02-22T14:01:56;98737.30;;;17.36;44.68
66801;BME280;53703;50.326;19.122;2023-02-22T14:04:51;98732.29;;;17.36;44.53
66801;BME280;53703;50.326;19.122;2023-02-22T14:07:50;98728.50;;;17.35;44.52
66801;BME280;53703;50.326;19.122;2023-02-22T14:10:51;98730.13;;;17.35;44.53
66801;BME280;53703;50.326;19.122;2023-02-22T14:14:14;98733.05;;;17.32;44.62
66801;BME280;53703;50.326;19.122;2023-02-22T14:17:34;98733.14;;;17.33;44.64
66801;BME280;53703;50.326;19.122;2023-02-22T14:20:34;98731.20;;;17.32;44.53
66801;BME280;53703;50.326;19.122;2023-02-22T14:23:34;98735.69;;;17.31;44.51
66801;BME280;53703;50.326;19.122;2023-02-22T14:26:31;98730.44;;;17.30;44.60
66801;BME280;53703;50.326;19.122;2023-02-22T14:29:26;98730.46;;;17.28;44.48
66801;BME280;53703;50.326;19.122;2023-02-22T14:32:20;98734.32;;;17.28;44.48
66801;BME280;53703;50.326;19.122;2023-02-22T14:35:24;98733.42;;;17.27;44.47
66801;BME280;53703;50.326;19.122;2023-02-22T14:38:37;98731.44;;;17.27;44.21
66801;BME280;53703;50.326;19.122;2023-02-22T14:41:32;98731.03;;;17.26;44.35
66801;BME280;53703;50.326;19.122;2023-02-22T14:44:35;98730.33;;;17.26;44.30
66801;BME280;53703;50.326;19.122;2023-02-22T14:47:54;98731.52;;;17.24;44.35
66801;BME280;53703;50.326;19.122;2023-02-22T14:50:55;98734.89;;;17.23;44.28
66801;BME280;53703;50.326;19.122;2023-02-22T14:54:02;98734.16;;;17.23;44.32
66801;BME280;53703;50.326;19.122;2023-02-22T14:57:10;98734.80;;;17.23;44.34
66801;BME280;53703;50.326;19.122;2023-02-22T15:00:15;98735.73;;;17.23;44.32
66801;BME280;53703;50.326;19.122;2023-02-22T15:03:42;98731.90;;;17.24;44.22
66801;BME280;53703;50.326;19.122;2023-02-22T15:06:37;98733.45;;;17.20;44.27
66801;BME280;53703;50.326;19.122;2023-02-22T15:09:32;98732.48;;;17.22;44.34
66801;BME280;53703;50.326;19.122;2023-02-22T15:12:30;98732.77;;;17.19;44.38
66801;BME280;53703;50.326;19.122;2023-02-22T15:15:25;98730.04;;;17.17;44.21
66801;BME280;53703;50.326;19.122;2023-02-22T15:18:25;98730.70;;;17.18;44.44
66801;BME280;53703;50.326;19.122;2023-02-22T15:21:25;98732.50;;;17.20;44.26
66801;BME280;53703;50.326;19.122;2023-02-22T15:24:25;98730.08;;;17.19;44.38
66801;BME280;53703;50.326;19.122;2023-02-22T15:27:20;98733.29;;;17.18;44.41
66801;BME280;53703;50.326;19.122;2023-02-22T15:30:22;98732.17;;;17.20;44.43
66801;BME280;53703;50.326;19.122;2023-02-22T15:33:20;98735.77;;;17.21;44.32
66801;BME280;53703;50.326;19.122;2023-02-22T15:36:17;98735.16;;;17.13;44.49
66801;BME280;53703;50.326;19.122;2023-02-22T15:39:22;98735.45;;;17.14;44.42
66801;BME280;53703;50.326;19.122;2023-02-22T15:42:19;98734.14;;;17.15;44.43
66801;BME280;53703;50.326;19.122;2023-02-22T15:45:20;98732.64;;;17.11;44.43
66801;BME280;53703;50.326;19.122;2023-02-22T15:48:18;98732.16;;;17.09;44.47
66801;BME280;53703;50.326;19.122;2023-02-22T15:51:13;98732.86;;;17.08;44.39